To NAV CANADA Home Page Login to a new session Search on AWWS site Disclaimer Vers la page française équivalente Tips FAQ What's new on the site To the Forecasts and Observations / NOTAM section To "File a Flight Plan" website Publications and other links Update of the User's profile FIC Telephone Numbers My Weather Data Folder Route Weather Data Regional Weather Data Local Weather Data To the Forecasts and Observations / NOTAM section
Request Generated 03/19/2019 at 23:05:37 UTC . Weather information available at that time is displayed.

METAR/TAF

TASIUJAQ/QC    

LWIS CYTQ 192300Z AUTO 22015KT M15/M18 A2975=
LWIS CYTQ 192200Z AUTO 23014KT M16/M19 A2979=
METAR CYTQ 192100Z 22019KT 8SM OVC030 M16/M20 A2981 RMK SC8 LAST STFD OBS NEXT/201200 UTC SLP102=

*** REMARK        : Forecast period has ended; this was the last TAF issued
*** REMARQUE : La période de prévision est échue; ceci était le dernier TAF qui a été émis
TAF AMD CYTQ 191506Z 1915/1921 24015G25KT P6SM BKN040 TEMPO 1915/1920
5SM -SN BKN020
FM192000 24018KT 6SM -SN OVC030 TEMPO 1920/1921 2SM -SN OVC020
RMK NXT FCST WILL BE ISSUED AT 201345Z=
Your time UTC time
Weather data provided by Environment Canada and NAV CANADA